createdAt,value
2018-12-27T00:00:08.253Z,91.96
2018-12-27T00:01:05.917Z,91.83
2018-12-27T00:02:05.505Z,91.63
2018-12-27T00:03:05.465Z,91.62
2018-12-27T00:04:05.484Z,91.96
2018-12-27T00:05:05.496Z,92.06
2018-12-27T00:06:06.777Z,92.01
2018-12-27T00:07:06.007Z,92
2018-12-27T00:08:05.708Z,92.06
2018-12-27T00:09:05.472Z,91.85
2018-12-27T00:10:05.457Z,91.96
2018-12-27T00:11:05.444Z,92.12
2018-12-27T00:12:05.588Z,92.24
2018-12-27T00:13:05.447Z,92.24
2018-12-27T00:14:05.469Z,92.12
2018-12-27T00:15:05.481Z,92.12
2018-12-27T00:16:05.627Z,92.14
2018-12-27T00:17:05.673Z,92.04
2018-12-27T00:18:05.709Z,92.18
2018-12-27T00:19:05.632Z,92.08
2018-12-27T00:20:05.522Z,91.86
2018-12-27T00:21:05.499Z,92.14
2018-12-27T00:22:05.677Z,91.92
2018-12-27T00:23:05.463Z,92.13
2018-12-27T00:24:05.858Z,91.96
2018-12-27T00:25:05.426Z,91.88
2018-12-27T00:26:05.636Z,91.71
2018-12-27T00:27:05.483Z,91.66
2018-12-27T00:28:06.239Z,91.82
2018-12-27T00:29:05.520Z,91.79
2018-12-27T00:30:05.463Z,91.83
2018-12-27T00:31:05.433Z,92.23
2018-12-27T00:32:05.461Z,92.38
2018-12-27T00:33:05.748Z,92.41
2018-12-27T00:34:05.847Z,92.08
2018-12-27T00:35:05.569Z,92.01
2018-12-27T00:36:05.510Z,91.96
2018-12-27T00:37:05.632Z,91.94
2018-12-27T00:38:05.620Z,91.97
2018-12-27T00:39:05.534Z,91.9
2018-12-27T00:40:05.810Z,92.08
2018-12-27T00:41:05.541Z,92.26
2018-12-27T00:42:05.585Z,92.07
2018-12-27T00:43:05.684Z,92.46
2018-12-27T00:44:07.516Z,92.6
2018-12-27T00:45:05.955Z,92.43
2018-12-27T00:46:05.649Z,92.15
2018-12-27T00:47:05.474Z,92.45
2018-12-27T00:48:05.593Z,92.43
2018-12-27T00:49:05.450Z,92.7
2018-12-27T00:50:05.624Z,92.4
2018-12-27T00:51:05.607Z,92.59
2018-12-27T00:52:05.382Z,92.52
2018-12-27T00:53:05.478Z,92.49
2018-12-27T00:54:05.555Z,92.56
2018-12-27T00:55:05.459Z,92.6
2018-12-27T00:56:05.466Z,92.71
2018-12-27T00:57:05.490Z,92.59
2018-12-27T00:58:05.492Z,92.6
2018-12-27T00:59:05.452Z,92.57
2018-12-27T01:00:05.442Z,92.66
2018-12-27T01:01:05.603Z,92.83
2018-12-27T01:02:05.642Z,92.93
2018-12-27T01:03:10.974Z,93.03
2018-12-27T01:04:05.781Z,92.86
2018-12-27T01:05:05.506Z,92.86
2018-12-27T01:06:05.643Z,93
2018-12-27T01:07:05.647Z,92.91
2018-12-27T01:08:05.383Z,93.02
2018-12-27T01:09:05.507Z,92.93
2018-12-27T01:10:05.395Z,92.84
2018-12-27T01:11:05.625Z,93.06
2018-12-27T01:12:05.387Z,93.29
2018-12-27T01:13:05.395Z,93.28
2018-12-27T01:14:05.698Z,93.17
2018-12-27T01:15:05.613Z,93.26
2018-12-27T01:16:05.425Z,93.37
2018-12-27T01:17:05.361Z,93.39
2018-12-27T01:18:05.440Z,93.48
2018-12-27T01:19:05.542Z,93.73
2018-12-27T01:20:05.521Z,93.73
2018-12-27T01:21:05.446Z,93.73
2018-12-27T01:22:05.393Z,93.53
2018-12-27T01:23:06.228Z,93.39
2018-12-27T01:24:05.428Z,93.78
2018-12-27T01:25:05.620Z,93.31
2018-12-27T01:26:05.550Z,93.18
2018-12-27T01:27:05.491Z,93.35
2018-12-27T01:28:05.526Z,93.39
2018-12-27T01:29:05.402Z,93.5
2018-12-27T01:30:06.227Z,93.21
2018-12-27T01:31:05.664Z,93.42
2018-12-27T01:32:05.595Z,93.58
2018-12-27T01:33:05.418Z,93.06
2018-12-27T01:34:05.402Z,93.41
2018-12-27T01:35:05.349Z,93.39
2018-12-27T01:36:05.392Z,93.25
2018-12-27T01:37:05.388Z,93.13
2018-12-27T01:38:05.409Z,93.14
2018-12-27T01:39:05.387Z,93.23
2018-12-27T01:40:05.391Z,93.15
2018-12-27T01:41:05.344Z,93.24
2018-12-27T01:42:05.415Z,93.01
2018-12-27T01:43:05.397Z,93.12
2018-12-27T01:44:05.650Z,92.87
2018-12-27T01:45:05.331Z,93.06
2018-12-27T01:46:05.411Z,93.14
2018-12-27T01:47:05.321Z,93.09
2018-12-27T01:48:05.360Z,93.13
2018-12-27T01:49:05.409Z,93.2
2018-12-27T01:50:05.659Z,93.16
2018-12-27T01:51:05.370Z,93.11
2018-12-27T01:52:05.492Z,93.22
2018-12-27T01:53:05.312Z,92.98
2018-12-27T01:54:05.484Z,92.89
2018-12-27T01:55:05.341Z,92.98
2018-12-27T01:56:05.418Z,92.97
2018-12-27T01:57:05.418Z,92.86
2018-12-27T01:58:05.413Z,93.01
2018-12-27T01:59:05.460Z,93.25
2018-12-27T02:00:05.540Z,93.39
2018-12-27T02:01:05.869Z,93.48
2018-12-27T02:02:05.301Z,92.99
2018-12-27T02:03:05.316Z,93.29
2018-12-27T02:04:05.809Z,93.27
2018-12-27T02:05:05.658Z,93.3
2018-12-27T02:06:05.349Z,93.21
2018-12-27T02:07:05.443Z,93.28
2018-12-27T02:08:06.158Z,93.41
2018-12-27T02:09:05.543Z,93.33
2018-12-27T02:10:05.789Z,93.25
2018-12-27T02:11:05.942Z,93.29
2018-12-27T02:12:05.542Z,93.33
2018-12-27T02:13:05.329Z,93.69
2018-12-27T02:14:05.673Z,93.74
2018-12-27T02:15:05.549Z,93.44
2018-12-27T02:16:05.341Z,93.75
2018-12-27T02:17:05.340Z,93.45
2018-12-27T02:18:05.508Z,93.34
2018-12-27T02:19:05.528Z,93.32
2018-12-27T02:20:05.398Z,93.49
2018-12-27T02:21:05.702Z,93.6
2018-12-27T02:22:05.469Z,93.49
2018-12-27T02:23:06.135Z,93.47
2018-12-27T02:24:05.516Z,93.44
2018-12-27T02:25:05.396Z,93.74
2018-12-27T02:26:05.340Z,93.62
2018-12-27T02:27:05.775Z,93.46
2018-12-27T02:28:05.357Z,93.44
2018-12-27T02:29:05.523Z,93.13
2018-12-27T02:30:05.708Z,93.24
2018-12-27T02:31:05.659Z,93.19
2018-12-27T02:32:05.285Z,93.24
2018-12-27T02:33:06.103Z,93.36
2018-12-27T02:34:05.457Z,93.38
2018-12-27T02:35:05.283Z,93.09
2018-12-27T02:36:05.549Z,93.07
2018-12-27T02:37:05.631Z,93
2018-12-27T02:38:05.306Z,93.04
2018-12-27T02:39:05.283Z,93.23
2018-12-27T02:40:06.088Z,93.16
2018-12-27T02:41:05.374Z,93.04
2018-12-27T02:42:05.691Z,93.45
2018-12-27T02:43:05.334Z,93.28
2018-12-27T02:44:05.709Z,93.34
2018-12-27T02:45:06.095Z,93.46
2018-12-27T02:46:06.126Z,93.28
2018-12-27T02:47:05.346Z,93.29
2018-12-27T02:48:05.323Z,93.09
2018-12-27T02:49:05.332Z,93.12
2018-12-27T02:50:05.432Z,93.29
2018-12-27T02:51:05.409Z,92.92
2018-12-27T02:52:05.249Z,93.05
2018-12-27T02:53:05.376Z,92.97
2018-12-27T02:54:05.463Z,93.02
2018-12-27T02:55:05.391Z,93.07
2018-12-27T02:56:05.249Z,92.98
2018-12-27T02:57:05.313Z,92.88
2018-12-27T02:58:05.491Z,92.94
2018-12-27T02:59:05.742Z,92.72
2018-12-27T03:00:05.280Z,92.79
2018-12-27T03:01:05.302Z,92.99
2018-12-27T03:02:05.723Z,92.96
2018-12-27T03:03:05.472Z,93.1
2018-12-27T03:04:05.542Z,93.08
2018-12-27T03:05:05.223Z,93.07
2018-12-27T03:06:05.597Z,92.87
2018-12-27T03:07:05.288Z,92.91
2018-12-27T03:08:05.434Z,93.24
2018-12-27T03:09:05.461Z,93.15
2018-12-27T03:10:05.580Z,93.4
2018-12-27T03:11:05.564Z,93.53
2018-12-27T03:12:05.392Z,93.47
2018-12-27T03:13:05.774Z,93.94
2018-12-27T03:14:05.699Z,94.44
2018-12-27T03:15:06.070Z,94.6
2018-12-27T03:16:05.346Z,94.38
2018-12-27T03:17:05.243Z,94.08
2018-12-27T03:18:05.392Z,93.89
2018-12-27T03:19:05.410Z,93.88
2018-12-27T03:20:05.273Z,94.46
2018-12-27T03:21:05.511Z,94.49
2018-12-27T03:22:05.218Z,94.49
2018-12-27T03:23:05.229Z,94.5
2018-12-27T03:24:05.278Z,94.82
2018-12-27T03:25:05.234Z,94.67
2018-12-27T03:26:05.226Z,94.96
2018-12-27T03:27:05.536Z,95.02
2018-12-27T03:28:05.312Z,94.72
2018-12-27T03:29:05.183Z,94.94
2018-12-27T03:30:05.210Z,95.06
2018-12-27T03:31:05.549Z,94.85
2018-12-27T03:32:05.385Z,94.95
2018-12-27T03:33:05.199Z,94.71
2018-12-27T03:34:05.225Z,94.69
2018-12-27T03:35:05.252Z,94.62
2018-12-27T03:36:05.205Z,94.42
2018-12-27T03:37:05.205Z,94.76
2018-12-27T03:38:05.296Z,94.9
2018-12-27T03:39:05.499Z,94.77
2018-12-27T03:40:05.204Z,94.94
2018-12-27T03:41:05.417Z,94.74
2018-12-27T03:42:05.306Z,94.74
2018-12-27T03:43:05.337Z,94.51
2018-12-27T03:44:05.252Z,94.77
2018-12-27T03:45:05.652Z,94.99
2018-12-27T03:46:05.626Z,94.7
2018-12-27T03:47:05.755Z,94.77
2018-12-27T03:48:05.384Z,94.79
2018-12-27T03:49:05.505Z,94.47
2018-12-27T03:50:05.398Z,94.18
2018-12-27T03:51:05.158Z,94.67
2018-12-27T03:52:05.486Z,94.6
2018-12-27T03:53:05.589Z,94.82
2018-12-27T03:54:05.592Z,95.04
2018-12-27T03:55:05.191Z,94.94
2018-12-27T03:56:05.481Z,94.96
2018-12-27T03:57:05.395Z,94.58
2018-12-27T03:58:05.287Z,95.05
2018-12-27T03:59:05.170Z,94.99
2018-12-27T04:00:06.001Z,94.74
2018-12-27T04:01:05.414Z,94.96
2018-12-27T04:02:05.536Z,94.86
2018-12-27T04:03:05.358Z,95.11
2018-12-27T04:04:05.242Z,95.21
2018-12-27T04:05:05.566Z,95.06
2018-12-27T04:06:05.353Z,95.09
2018-12-27T04:07:05.377Z,95.34
2018-12-27T04:08:05.387Z,95.06
2018-12-27T04:09:05.204Z,94.94
2018-12-27T04:10:05.448Z,94.66
2018-12-27T04:11:05.339Z,94.59
2018-12-27T04:12:05.338Z,94.51
2018-12-27T04:13:05.883Z,94.55
2018-12-27T04:14:05.332Z,94.6
2018-12-27T04:15:05.143Z,95.19
2018-12-27T04:16:05.152Z,94.82
2018-12-27T04:17:05.230Z,94.97
2018-12-27T04:18:05.135Z,94.76
2018-12-27T04:19:05.200Z,95.05
2018-12-27T04:20:05.242Z,94.83
2018-12-27T04:21:05.249Z,94.58
2018-12-27T04:22:05.454Z,94.55
2018-12-27T04:23:05.153Z,94.96
2018-12-27T04:24:05.298Z,94.49
2018-12-27T04:25:05.940Z,94.55
2018-12-27T04:26:05.180Z,94.76
2018-12-27T04:27:05.314Z,94.28
2018-12-27T04:28:05.192Z,94.22
2018-12-27T04:29:05.439Z,93.95
2018-12-27T04:30:05.536Z,94.03
2018-12-27T04:31:05.961Z,94.17
2018-12-27T04:32:05.950Z,93.97
2018-12-27T04:33:05.252Z,93.96
2018-12-27T04:34:09.420Z,93.9
2018-12-27T04:35:05.188Z,93.89
2018-12-27T04:36:05.107Z,93.94
2018-12-27T04:37:05.200Z,94.08
2018-12-27T04:38:05.567Z,94.11
2018-12-27T04:39:05.504Z,94.08
2018-12-27T04:40:05.175Z,94.17
2018-12-27T04:41:05.916Z,94.06
2018-12-27T04:42:05.389Z,94.12
2018-12-27T04:43:05.244Z,94.12
2018-12-27T04:44:05.097Z,93.99
2018-12-27T04:45:05.256Z,93.85
2018-12-27T04:46:05.343Z,94.13
2018-12-27T04:47:05.295Z,94.31
2018-12-27T04:48:05.308Z,94.26
2018-12-27T04:49:05.540Z,94.54
2018-12-27T04:50:05.165Z,94.94
2018-12-27T04:51:05.111Z,95.11
2018-12-27T04:52:05.287Z,94.43
2018-12-27T04:53:05.605Z,94.49
2018-12-27T04:54:05.070Z,94.42
2018-12-27T04:55:05.046Z,94.46
2018-12-27T04:56:05.237Z,94.35
2018-12-27T04:57:05.238Z,94.21
2018-12-27T04:58:05.083Z,94.29
2018-12-27T04:59:05.097Z,94.15
2018-12-27T05:00:05.932Z,94.67
2018-12-27T05:01:05.087Z,94.54
2018-12-27T05:02:05.059Z,94.22
2018-12-27T05:03:05.073Z,94.04
2018-12-27T05:04:05.177Z,94.04
2018-12-27T05:05:05.073Z,93.98
2018-12-27T05:06:05.390Z,93.93
2018-12-27T05:07:05.133Z,94.23
2018-12-27T05:08:05.093Z,93.97
2018-12-27T05:09:05.165Z,93.4
2018-12-27T05:10:05.101Z,93.59
2018-12-27T05:11:05.207Z,93.37
2018-12-27T05:12:05.055Z,93.46
2018-12-27T05:13:05.407Z,93.6
2018-12-27T05:14:05.104Z,93.49
2018-12-27T05:15:05.067Z,93.74
2018-12-27T05:16:05.070Z,93.86
2018-12-27T05:17:05.127Z,93.66
2018-12-27T05:18:05.054Z,93.58
2018-12-27T05:19:05.062Z,93.5
2018-12-27T05:20:05.408Z,93.1
2018-12-27T05:21:05.084Z,93.18
2018-12-27T05:22:05.082Z,93.41
2018-12-27T05:23:05.323Z,93.42
2018-12-27T05:24:05.067Z,93.17
2018-12-27T05:25:05.519Z,93.12
2018-12-27T05:26:05.054Z,93.35
2018-12-27T05:27:05.357Z,93.44
2018-12-27T05:28:05.110Z,93.16
2018-12-27T05:29:05.370Z,93.37
2018-12-27T05:30:05.340Z,93.95
2018-12-27T05:31:05.249Z,94.01
2018-12-27T05:32:05.245Z,94.51
2018-12-27T05:33:05.111Z,94.6
2018-12-27T05:34:05.068Z,94.51
2018-12-27T05:35:05.149Z,94.64
2018-12-27T05:36:05.052Z,94.52
2018-12-27T05:37:05.558Z,94.49
2018-12-27T05:38:05.529Z,94.72
2018-12-27T05:39:05.402Z,94.71
2018-12-27T05:40:05.381Z,94.51
2018-12-27T05:41:05.058Z,94.6
2018-12-27T05:42:05.153Z,94.22
2018-12-27T05:43:05.352Z,94.23
2018-12-27T05:44:05.337Z,94.06
2018-12-27T05:45:05.629Z,94.14
2018-12-27T05:46:05.113Z,94
2018-12-27T05:47:05.479Z,93.74
2018-12-27T05:48:05.067Z,93.69
2018-12-27T05:49:05.294Z,93.79
2018-12-27T05:50:05.226Z,93.66
2018-12-27T05:51:05.082Z,93.71
2018-12-27T05:52:05.081Z,93.53
2018-12-27T05:53:04.993Z,93.45
2018-12-27T05:54:05.097Z,93.44
2018-12-27T05:55:05.133Z,93.46
2018-12-27T05:56:05.228Z,93.43
2018-12-27T05:57:05.269Z,93.17
2018-12-27T05:58:05.138Z,93.16
2018-12-27T05:59:04.994Z,93.39
2018-12-27T06:00:05.146Z,93.46
2018-12-27T06:01:05.362Z,93.27
2018-12-27T06:02:04.996Z,93.29
2018-12-27T06:03:05.512Z,93.27
2018-12-27T06:04:05.344Z,93.4
2018-12-27T06:05:05.390Z,93.18
2018-12-27T06:06:05.118Z,93.2
2018-12-27T06:07:05.229Z,93.33
2018-12-27T06:08:05.056Z,93.29
2018-12-27T06:09:05.139Z,92.88
2018-12-27T06:10:04.951Z,93.2
2018-12-27T06:11:05.184Z,93.46
2018-12-27T06:12:04.987Z,93.25
2018-12-27T06:13:05.100Z,93.37
2018-12-27T06:14:05.149Z,93.36
2018-12-27T06:15:05.005Z,93.27
2018-12-27T06:16:05.346Z,93.31
2018-12-27T06:17:05.225Z,93.58
2018-12-27T06:18:05.176Z,93.55
2018-12-27T06:19:05.177Z,93.59
2018-12-27T06:20:04.940Z,93.56
2018-12-27T06:21:04.940Z,93.39
2018-12-27T06:22:04.958Z,93.58
2018-12-27T06:23:05.193Z,93.95
2018-12-27T06:24:05.114Z,93.98
2018-12-27T06:25:05.084Z,94.05
2018-12-27T06:26:05.006Z,93.97
2018-12-27T06:27:05.243Z,93.73
2018-12-27T06:28:04.937Z,93.6
2018-12-27T06:29:05.444Z,93.83
2018-12-27T06:30:05.047Z,93.77
2018-12-27T06:31:05.430Z,93.7
2018-12-27T06:32:05.172Z,94.15
2018-12-27T06:33:05.266Z,93.74
2018-12-27T06:34:05.143Z,93.92
2018-12-27T06:35:05.214Z,93.74
2018-12-27T06:36:05.017Z,93.58
2018-12-27T06:37:05.338Z,93.57
2018-12-27T06:38:04.966Z,93.78
2018-12-27T06:39:04.962Z,93.63
2018-12-27T06:40:04.996Z,93.84
2018-12-27T06:41:05.023Z,93.97
2018-12-27T06:42:05.028Z,93.97
2018-12-27T06:43:04.994Z,93.71
2018-12-27T06:44:05.217Z,93.48
2018-12-27T06:45:05.094Z,93.77
2018-12-27T06:46:05.231Z,93.7
2018-12-27T06:47:04.960Z,93.73
2018-12-27T06:48:05.209Z,94.15
2018-12-27T06:49:05.054Z,93.88
2018-12-27T06:50:04.973Z,93.94
2018-12-27T06:51:05.088Z,93.81
2018-12-27T06:52:05.065Z,93.59
2018-12-27T06:53:05.289Z,93.85
2018-12-27T06:54:05.103Z,93.76
2018-12-27T06:55:04.959Z,93.74
2018-12-27T06:56:05.134Z,93.83
2018-12-27T06:57:05.299Z,93.9
2018-12-27T06:58:04.955Z,93.71
2018-12-27T06:59:05.061Z,93.57
2018-12-27T07:00:05.417Z,93.56
2018-12-27T07:01:05.422Z,93.51
2018-12-27T07:02:05.775Z,93.55
2018-12-27T07:03:04.897Z,93.51
2018-12-27T07:04:05.279Z,93.4
2018-12-27T07:05:05.153Z,93.55
2018-12-27T07:06:05.071Z,93.35
2018-12-27T07:07:05.320Z,93.39
2018-12-27T07:08:04.895Z,93.11
2018-12-27T07:09:05.134Z,93.2
2018-12-27T07:10:05.738Z,93.19
2018-12-27T07:11:05.218Z,93.07
2018-12-27T07:12:05.708Z,93.07
2018-12-27T07:13:05.253Z,92.95
2018-12-27T07:14:05.313Z,93
2018-12-27T07:15:04.869Z,92.91
2018-12-27T07:16:05.121Z,93.03
2018-12-27T07:17:05.135Z,93.28
2018-12-27T07:18:05.060Z,93.05
2018-12-27T07:19:04.906Z,93.04
2018-12-27T07:20:05.073Z,93.03
2018-12-27T07:21:05.725Z,93.2
2018-12-27T07:22:05.163Z,93.17
2018-12-27T07:23:05.336Z,93.14
2018-12-27T07:24:05.178Z,93.14
2018-12-27T07:25:04.929Z,92.99
2018-12-27T07:26:05.434Z,92.87
2018-12-27T07:27:05.175Z,92.96
2018-12-27T07:28:05.094Z,92.92
2018-12-27T07:29:05.429Z,93
2018-12-27T07:30:05.011Z,93.11
2018-12-27T07:31:05.118Z,93.01
2018-12-27T07:32:04.882Z,93.08
2018-12-27T07:33:05.145Z,93.13
2018-12-27T07:34:05.045Z,93.17
2018-12-27T07:35:05.233Z,93.24
2018-12-27T07:36:05.060Z,93.94
2018-12-27T07:37:05.703Z,93.51
2018-12-27T07:38:05.201Z,93.17
2018-12-27T07:39:05.073Z,93.25
2018-12-27T07:40:05.379Z,93.35
2018-12-27T07:41:04.824Z,93.3
2018-12-27T07:42:05.173Z,93.16
2018-12-27T07:43:05.670Z,93.22
2018-12-27T07:44:05.225Z,93.23
2018-12-27T07:45:04.940Z,93.21
2018-12-27T07:46:10.805Z,93.02
2018-12-27T07:47:05.687Z,92.88
2018-12-27T07:48:04.843Z,92.67
2018-12-27T07:49:05.281Z,92.82
2018-12-27T07:50:04.875Z,92.65
2018-12-27T07:51:04.953Z,92.63
2018-12-27T07:52:05.131Z,92.63
2018-12-27T07:53:04.969Z,92.61
2018-12-27T07:54:05.383Z,92.55
2018-12-27T07:55:04.834Z,92.53
2018-12-27T07:56:05.095Z,92.57
2018-12-27T07:57:04.918Z,92.44
2018-12-27T07:58:05.102Z,92.49
2018-12-27T07:59:05.209Z,92.41
2018-12-27T08:00:04.965Z,92.37
2018-12-27T08:01:05.177Z,92.3
2018-12-27T08:02:05.094Z,92.15
2018-12-27T08:03:04.826Z,92.1
2018-12-27T08:04:04.920Z,92.19
2018-12-27T08:05:05.069Z,92.48
2018-12-27T08:06:05.128Z,92.36
2018-12-27T08:07:04.987Z,92.1
2018-12-27T08:08:05.236Z,91.79
2018-12-27T08:09:05.205Z,91.51
2018-12-27T08:10:05.110Z,91.92
2018-12-27T08:11:05.185Z,92.09
2018-12-27T08:12:04.789Z,92.18
2018-12-27T08:13:05.267Z,92.02
2018-12-27T08:14:04.783Z,91.68
2018-12-27T08:15:05.619Z,91.54
2018-12-27T08:16:04.785Z,91.72
2018-12-27T08:17:04.794Z,91.7
2018-12-27T08:18:05.245Z,91.78
2018-12-27T08:19:04.878Z,91.57
2018-12-27T08:20:05.094Z,91.48
2018-12-27T08:21:04.913Z,91.68
2018-12-27T08:22:05.013Z,91.13
2018-12-27T08:23:04.936Z,91.49
2018-12-27T08:24:04.967Z,91.59
2018-12-27T08:25:04.953Z,91.54
2018-12-27T08:26:04.772Z,91.47
2018-12-27T08:27:05.003Z,91.3
2018-12-27T08:28:04.934Z,91.57
2018-12-27T08:29:04.838Z,91.24
2018-12-27T08:30:04.918Z,91.31
2018-12-27T08:31:04.819Z,91.06
2018-12-27T08:32:04.973Z,90.91
2018-12-27T08:33:04.788Z,91.22
2018-12-27T08:34:04.960Z,91.17
2018-12-27T08:35:11.194Z,90.97
2018-12-27T08:36:04.963Z,90.91
2018-12-27T08:37:04.925Z,90.86
2018-12-27T08:38:04.942Z,90.66
2018-12-27T08:39:05.094Z,90.92
2018-12-27T08:40:04.758Z,91.07
2018-12-27T08:41:04.858Z,90.61
2018-12-27T08:42:05.625Z,90.51
2018-12-27T08:43:04.905Z,90.77
2018-12-27T08:44:04.972Z,90.97
2018-12-27T08:45:04.978Z,91.09
2018-12-27T08:46:04.887Z,91.06
2018-12-27T08:47:05.154Z,90.97
2018-12-27T08:48:05.111Z,91.22
2018-12-27T08:49:04.982Z,91.17
2018-12-27T08:50:04.876Z,91.07
2018-12-27T08:51:04.932Z,90.92
2018-12-27T08:52:04.863Z,90.68
2018-12-27T08:53:04.741Z,90.83
2018-12-27T08:54:05.058Z,90.87
2018-12-27T08:55:04.786Z,90.77
2018-12-27T08:56:04.888Z,90.75
2018-12-27T08:57:04.920Z,90.57
2018-12-27T08:58:04.971Z,90.24
2018-12-27T08:59:04.982Z,90.51
2018-12-27T09:00:04.836Z,90.42
2018-12-27T09:01:05.018Z,90.35
2018-12-27T09:02:04.798Z,90.27
2018-12-27T09:03:05.137Z,90.53
2018-12-27T09:04:04.759Z,90.77
2018-12-27T09:05:04.988Z,90.34
2018-12-27T09:06:04.711Z,90.55
2018-12-27T09:07:04.865Z,90.72
2018-12-27T09:08:04.765Z,90.71
2018-12-27T09:09:04.954Z,90.74
2018-12-27T09:10:04.943Z,90.21
2018-12-27T09:11:04.744Z,90.4
2018-12-27T09:12:05.108Z,90.15
2018-12-27T09:13:05.042Z,90.52
2018-12-27T09:14:04.930Z,90.11
2018-12-27T09:15:05.122Z,90.17
2018-12-27T09:16:04.725Z,90.37
2018-12-27T09:17:04.936Z,90.16
2018-12-27T09:18:04.765Z,89.78
2018-12-27T09:19:04.930Z,90.1
2018-12-27T09:20:05.063Z,90.12
2018-12-27T09:21:04.931Z,90.07
2018-12-27T09:22:04.744Z,90.4
2018-12-27T09:23:04.701Z,90.39
2018-12-27T09:24:05.217Z,90.38
2018-12-27T09:25:04.988Z,90.52
2018-12-27T09:26:04.868Z,90.42
2018-12-27T09:27:04.895Z,90.2
2018-12-27T09:28:04.723Z,90.34
2018-12-27T09:29:04.967Z,90.41
2018-12-27T09:30:05.003Z,90.46
2018-12-27T09:31:04.781Z,90.41
2018-12-27T09:32:04.965Z,90.09
2018-12-27T09:33:04.700Z,90.32
2018-12-27T09:34:04.686Z,89.92
2018-12-27T09:35:04.943Z,90.02
2018-12-27T09:36:04.707Z,89.78
2018-12-27T09:37:04.918Z,89.62
2018-12-27T09:38:04.857Z,89.8
2018-12-27T09:39:04.829Z,89.82
2018-12-27T09:40:04.792Z,89.09
2018-12-27T09:41:05.967Z,89.59
2018-12-27T09:42:04.734Z,89.42
2018-12-27T09:43:04.740Z,89.79
2018-12-27T09:44:04.755Z,89.37
2018-12-27T09:45:04.649Z,89.58
2018-12-27T09:46:04.887Z,89.55
2018-12-27T09:47:04.695Z,89.65
2018-12-27T09:48:04.943Z,89.08
2018-12-27T09:49:04.928Z,88.95
2018-12-27T09:50:04.723Z,89.26
2018-12-27T09:51:05.176Z,89.4
2018-12-27T09:52:04.940Z,89.34
2018-12-27T09:53:04.941Z,89.24
2018-12-27T09:54:05.022Z,89.52
2018-12-27T09:55:05.030Z,89.35
2018-12-27T09:56:05.214Z,89.34
2018-12-27T09:57:04.709Z,89.28
2018-12-27T09:58:04.917Z,89.41
2018-12-27T09:59:04.951Z,89.35
2018-12-27T10:00:04.673Z,89.31
2018-12-27T10:01:07.933Z,89.47
2018-12-27T10:02:04.659Z,89.28
2018-12-27T10:03:05.358Z,89.55
2018-12-27T10:04:04.657Z,89.61
2018-12-27T10:05:05.059Z,89.97
2018-12-27T10:06:04.726Z,89.99
2018-12-27T10:07:04.936Z,89.81
2018-12-27T10:08:05.779Z,89.98
2018-12-27T10:09:04.683Z,89.8
2018-12-27T10:10:04.771Z,89.48
2018-12-27T10:11:04.699Z,88.75
2018-12-27T10:12:04.662Z,88.9
2018-12-27T10:13:04.689Z,89.18
2018-12-27T10:14:04.677Z,89.11
2018-12-27T10:15:05.024Z,89.18
2018-12-27T10:16:04.849Z,89.11
2018-12-27T10:17:04.680Z,89.06
2018-12-27T10:18:07.701Z,89.01
2018-12-27T10:19:04.706Z,89
2018-12-27T10:20:04.650Z,89.1
2018-12-27T10:21:04.964Z,88.61
2018-12-27T10:22:04.768Z,88.64
2018-12-27T10:23:05.368Z,88.88
2018-12-27T10:24:05.005Z,88.84
2018-12-27T10:25:04.735Z,88.63
2018-12-27T10:26:04.673Z,88.5
2018-12-27T10:27:05.435Z,88.77
2018-12-27T10:28:04.607Z,88.58
2018-12-27T10:29:04.722Z,89.1
2018-12-27T10:30:04.995Z,88.98
2018-12-27T10:31:04.726Z,88.55
2018-12-27T10:32:04.861Z,88.47
2018-12-27T10:33:04.811Z,88.74
2018-12-27T10:34:05.677Z,88.7
2018-12-27T10:35:04.662Z,88.64
2018-12-27T10:36:04.714Z,88.62
2018-12-27T10:37:08.147Z,88.6
2018-12-27T10:38:05.704Z,88.19
2018-12-27T10:39:05.708Z,88.39
2018-12-27T10:40:05.422Z,88.27
2018-12-27T10:41:04.847Z,88.38
2018-12-27T10:42:04.784Z,88.47
2018-12-27T10:43:05.405Z,88.56
2018-12-27T10:44:04.619Z,88.34
2018-12-27T10:45:04.695Z,88.39
2018-12-27T10:46:05.423Z,88.41
2018-12-27T10:47:04.880Z,88.27
2018-12-27T10:48:05.873Z,88.4
2018-12-27T10:49:04.704Z,88.69
2018-12-27T10:50:04.619Z,88.58
2018-12-27T10:51:04.620Z,88.71
2018-12-27T10:52:04.602Z,88.35
2018-12-27T10:53:04.577Z,87.9
2018-12-27T10:54:04.719Z,88.45
2018-12-27T10:55:04.651Z,88.72
2018-12-27T10:56:05.020Z,88.51
2018-12-27T10:57:04.586Z,88.08
2018-12-27T10:58:04.724Z,88.26
2018-12-27T10:59:04.603Z,88.19
2018-12-27T11:00:04.603Z,88.3
2018-12-27T11:01:04.611Z,88.45
2018-12-27T11:02:04.606Z,88.36
2018-12-27T11:03:04.733Z,88.71
2018-12-27T11:04:04.648Z,88.68
2018-12-27T11:05:04.610Z,88.55
2018-12-27T11:06:04.703Z,88.61
2018-12-27T11:07:04.571Z,88.66
2018-12-27T11:08:04.603Z,88.86
2018-12-27T11:09:04.585Z,88.41
2018-12-27T11:10:04.561Z,88.3
2018-12-27T11:11:04.659Z,88.22
2018-12-27T11:12:04.736Z,88.07
2018-12-27T11:13:04.775Z,88.26
2018-12-27T11:14:04.725Z,88.52
2018-12-27T11:15:04.869Z,87.81
2018-12-27T11:16:04.612Z,88.03
2018-12-27T11:17:04.596Z,88.29
2018-12-27T11:18:04.696Z,88.61
2018-12-27T11:19:04.814Z,87.83
2018-12-27T11:20:04.575Z,87.69
2018-12-27T11:21:04.522Z,88.01
2018-12-27T11:22:04.788Z,87.8
2018-12-27T11:23:04.558Z,88.23
2018-12-27T11:24:04.562Z,88.02
2018-12-27T11:25:04.536Z,88.33
2018-12-27T11:26:04.698Z,88.44
2018-12-27T11:27:04.692Z,88.46
2018-12-27T11:28:04.511Z,88.36
2018-12-27T11:29:04.666Z,88.62
2018-12-27T11:30:04.566Z,88.64
2018-12-27T11:31:04.655Z,88.34
2018-12-27T11:32:04.890Z,87.96
2018-12-27T11:33:04.794Z,88.37
2018-12-27T11:34:04.499Z,87.8
2018-12-27T11:35:04.563Z,88.35
2018-12-27T11:36:05.201Z,87.97
2018-12-27T11:37:06.065Z,88.17
2018-12-27T11:38:04.650Z,88.08
2018-12-27T11:39:04.898Z,87.93
2018-12-27T11:40:04.896Z,88.11
2018-12-27T11:41:04.913Z,88.25
2018-12-27T11:42:05.022Z,88.16
2018-12-27T11:43:04.821Z,87.66
2018-12-27T11:44:04.610Z,88.04
2018-12-27T11:45:04.658Z,87.59
2018-12-27T11:46:04.762Z,87.97
2018-12-27T11:47:04.747Z,87.73
2018-12-27T11:48:04.777Z,87.79
2018-12-27T11:49:04.504Z,88.01
2018-12-27T11:50:04.585Z,87.95
2018-12-27T11:51:04.739Z,87.77
2018-12-27T11:52:04.717Z,87.99
2018-12-27T11:53:04.459Z,87.83
2018-12-27T11:54:04.890Z,87.66
2018-12-27T11:55:04.570Z,87.82
2018-12-27T11:56:04.522Z,87.81
2018-12-27T11:57:04.600Z,87.97
2018-12-27T11:58:04.686Z,87.58
2018-12-27T11:59:04.584Z,87.62
2018-12-27T12:00:04.604Z,87.58
2018-12-27T12:01:04.534Z,87.62
2018-12-27T12:02:04.612Z,87.62
2018-12-27T12:03:04.897Z,87.53
2018-12-27T12:04:04.758Z,87.37
2018-12-27T12:05:04.519Z,87.38
2018-12-27T12:06:04.933Z,87.67
2018-12-27T12:07:04.534Z,87.26
2018-12-27T12:08:04.712Z,87.68
2018-12-27T12:09:04.508Z,87.32
2018-12-27T12:10:04.705Z,87.59
2018-12-27T12:11:04.564Z,87.39
2018-12-27T12:12:04.651Z,87.51
2018-12-27T12:13:04.547Z,87.43
2018-12-27T12:14:04.830Z,87.55
2018-12-27T12:15:04.782Z,87.69
2018-12-27T12:16:04.739Z,87.45
2018-12-27T12:17:05.153Z,87.69
2018-12-27T12:18:04.676Z,87.6
2018-12-27T12:19:04.488Z,87.36
2018-12-27T12:20:04.671Z,87.45
2018-12-27T12:21:04.636Z,87.24
2018-12-27T12:22:04.469Z,87.51
2018-12-27T12:23:04.662Z,87.43
2018-12-27T12:24:04.662Z,87.33
2018-12-27T12:25:04.545Z,87.58
2018-12-27T12:26:04.523Z,87.78
2018-12-27T12:27:04.572Z,87.62
2018-12-27T12:28:04.873Z,87.5
2018-12-27T12:29:04.834Z,87.47
2018-12-27T12:30:04.535Z,87.4
2018-12-27T12:31:04.948Z,87.53
2018-12-27T12:32:04.595Z,87.21
2018-12-27T12:33:04.589Z,87.66
2018-12-27T12:34:04.685Z,87.61
2018-12-27T12:35:04.566Z,87.54
2018-12-27T12:36:10.491Z,87.59
2018-12-27T12:37:04.455Z,87.24
2018-12-27T12:38:04.433Z,87.48
2018-12-27T12:39:04.446Z,87.31
2018-12-27T12:40:04.475Z,87.31
2018-12-27T12:41:04.527Z,87.56
2018-12-27T12:42:04.622Z,87.98
2018-12-27T12:43:04.509Z,87.39
2018-12-27T12:44:04.553Z,87.5
2018-12-27T12:45:04.574Z,87.79
2018-12-27T12:46:04.478Z,87.72
2018-12-27T12:47:04.429Z,87.67
2018-12-27T12:48:04.452Z,87.58
2018-12-27T12:49:04.481Z,87.77
2018-12-27T12:50:04.450Z,87.71
2018-12-27T12:51:04.418Z,87.98
2018-12-27T12:52:04.516Z,87.94
2018-12-27T12:53:04.439Z,88.08
2018-12-27T12:54:04.828Z,87.88
2018-12-27T12:55:04.566Z,88.13